sensor_id;sensor_type;location;lat;lon;timestamp;temperature;humidity
75985;DHT22;65033;44.660;37.758;2023-05-07T00:00:14;19.11;72.38
75985;DHT22;65033;44.660;37.758;2023-05-07T00:01:24;19.08;73.19
75985;DHT22;65033;44.660;37.758;2023-05-07T00:02:29;19.07;73.47
75985;DHT22;65033;44.660;37.758;2023-05-07T00:03:36;19.05;73.54
75985;DHT22;65033;44.660;37.758;2023-05-07T00:04:53;19.03;74.71
75985;DHT22;65033;44.660;37.758;2023-05-07T00:05:57;19.01;72.83
75985;DHT22;65033;44.660;37.758;2023-05-07T00:07:03;19.01;71.94
75985;DHT22;65033;44.660;37.758;2023-05-07T00:08:11;18.99;73.35
75985;DHT22;65033;44.660;37.758;2023-05-07T00:09:17;18.98;72.99
75985;DHT22;65033;44.660;37.758;2023-05-07T00:10:23;18.97;71.77
75985;DHT22;65033;44.660;37.758;2023-05-07T00:11:30;18.96;72.67
75985;DHT22;65033;44.660;37.758;2023-05-07T00:12:34;18.94;72.68
75985;DHT22;65033;44.660;37.758;2023-05-07T00:13:37;18.94;72.70
75985;DHT22;65033;44.660;37.758;2023-05-07T00:14:41;18.94;72.48
75985;DHT22;65033;44.660;37.758;2023-05-07T00:15:44;18.92;72.45
75985;DHT22;65033;44.660;37.758;2023-05-07T00:16:52;18.92;70.77
75985;DHT22;65033;44.660;37.758;2023-05-07T00:18:01;18.89;72.72
75985;DHT22;65033;44.660;37.758;2023-05-07T00:19:10;18.87;72.16
75985;DHT22;65033;44.660;37.758;2023-05-07T00:20:15;18.87;72.01
75985;DHT22;65033;44.660;37.758;2023-05-07T00:21:18;18.86;72.44
75985;DHT22;65033;44.660;37.758;2023-05-07T00:22:21;18.86;71.80
75985;DHT22;65033;44.660;37.758;2023-05-07T00:23:30;18.84;74.02
75985;DHT22;65033;44.660;37.758;2023-05-07T00:24:33;18.83;74.34
75985;DHT22;65033;44.660;37.758;2023-05-07T00:25:54;18.81;74.95
75985;DHT22;65033;44.660;37.758;2023-05-07T00:27:02;18.81;75.06
75985;DHT22;65033;44.660;37.758;2023-05-07T00:28:10;18.85;72.95
75985;DHT22;65033;44.660;37.758;2023-05-07T00:29:20;18.84;73.22
75985;DHT22;65033;44.660;37.758;2023-05-07T00:30:29;18.85;72.19
75985;DHT22;65033;44.660;37.758;2023-05-07T00:31:36;18.85;72.34
75985;DHT22;65033;44.660;37.758;2023-05-07T00:32:42;18.84;73.11
75985;DHT22;65033;44.660;37.758;2023-05-07T00:33:52;18.85;71.65
75985;DHT22;65033;44.660;37.758;2023-05-07T00:34:55;18.86;72.96
75985;DHT22;65033;44.660;37.758;2023-05-07T00:36:05;18.86;73.28
75985;DHT22;65033;44.660;37.758;2023-05-07T00:37:10;18.86;74.02
75985;DHT22;65033;44.660;37.758;2023-05-07T00:38:22;18.82;72.19
75985;DHT22;65033;44.660;37.758;2023-05-07T00:39:30;18.76;73.34
75985;DHT22;65033;44.660;37.758;2023-05-07T00:40:36;18.69;75.61
75985;DHT22;65033;44.660;37.758;2023-05-07T00:41:53;18.63;76.03
75985;DHT22;65033;44.660;37.758;2023-05-07T00:42:59;18.58;75.97
75985;DHT22;65033;44.660;37.758;2023-05-07T00:44:08;18.55;75.16
75985;DHT22;65033;44.660;37.758;2023-05-07T00:45:16;18.51;74.80
75985;DHT22;65033;44.660;37.758;2023-05-07T00:46:24;18.51;76.84
75985;DHT22;65033;44.660;37.758;2023-05-07T00:47:31;18.54;76.38
75985;DHT22;65033;44.660;37.758;2023-05-07T00:48:40;18.55;76.96
75985;DHT22;65033;44.660;37.758;2023-05-07T00:49:46;18.55;76.63
75985;DHT22;65033;44.660;37.758;2023-05-07T00:50:51;18.52;75.82
75985;DHT22;65033;44.660;37.758;2023-05-07T00:51:58;18.54;75.91
75985;DHT22;65033;44.660;37.758;2023-05-07T00:53:23;18.55;75.13
75985;DHT22;65033;44.660;37.758;2023-05-07T00:54:27;18.52;76.21
75985;DHT22;65033;44.660;37.758;2023-05-07T00:55:33;18.49;75.98
75985;DHT22;65033;44.660;37.758;2023-05-07T00:56:47;18.51;75.87
75985;DHT22;65033;44.660;37.758;2023-05-07T00:58:13;18.51;76.52
75985;DHT22;65033;44.660;37.758;2023-05-07T00:59:32;18.52;76.53
75985;DHT22;65033;44.660;37.758;2023-05-07T01:00:48;18.53;76.62
75985;DHT22;65033;44.660;37.758;2023-05-07T01:01:55;18.54;77.34
75985;DHT22;65033;44.660;37.758;2023-05-07T01:03:00;18.56;76.21
75985;DHT22;65033;44.660;37.758;2023-05-07T01:04:04;18.59;75.98
75985;DHT22;65033;44.660;37.758;2023-05-07T01:05:13;18.65;75.86
75985;DHT22;65033;44.660;37.758;2023-05-07T01:06:23;18.66;75.02
75985;DHT22;65033;44.660;37.758;2023-05-07T01:07:38;18.66;76.15
75985;DHT22;65033;44.660;37.758;2023-05-07T01:08:43;18.65;76.37
75985;DHT22;65033;44.660;37.758;2023-05-07T01:10:05;18.67;76.44
75985;DHT22;65033;44.660;37.758;2023-05-07T01:11:14;18.66;77.68
75985;DHT22;65033;44.660;37.758;2023-05-07T01:12:24;18.63;78.20
75985;DHT22;65033;44.660;37.758;2023-05-07T01:13:38;18.64;77.25
75985;DHT22;65033;44.660;37.758;2023-05-07T01:14:42;18.64;78.59
75985;DHT22;65033;44.660;37.758;2023-05-07T01:15:45;18.65;77.28
75985;DHT22;65033;44.660;37.758;2023-05-07T01:16:50;18.62;77.50
75985;DHT22;65033;44.660;37.758;2023-05-07T01:18:00;18.56;78.94
75985;DHT22;65033;44.660;37.758;2023-05-07T01:19:20;18.50;79.23
75985;DHT22;65033;44.660;37.758;2023-05-07T01:20:28;18.50;78.24
75985;DHT22;65033;44.660;37.758;2023-05-07T01:21:47;18.46;77.96
75985;DHT22;65033;44.660;37.758;2023-05-07T01:22:59;18.39;77.04
75985;DHT22;65033;44.660;37.758;2023-05-07T01:24:13;18.36;77.39
75985;DHT22;65033;44.660;37.758;2023-05-07T01:25:20;18.32;79.27
75985;DHT22;65033;44.660;37.758;2023-05-07T01:26:33;18.23;79.40
75985;DHT22;65033;44.660;37.758;2023-05-07T01:27:38;18.20;78.46
75985;DHT22;65033;44.660;37.758;2023-05-07T01:28:51;18.18;79.68
75985;DHT22;65033;44.660;37.758;2023-05-07T01:30:08;18.10;79.04
75985;DHT22;65033;44.660;37.758;2023-05-07T01:31:27;18.04;79.21
75985;DHT22;65033;44.660;37.758;2023-05-07T01:32:58;17.98;78.72
75985;DHT22;65033;44.660;37.758;2023-05-07T01:34:13;17.95;79.46
75985;DHT22;65033;44.660;37.758;2023-05-07T01:35:27;17.90;79.16
75985;DHT22;65033;44.660;37.758;2023-05-07T01:36:33;17.85;80.14
75985;DHT22;65033;44.660;37.758;2023-05-07T01:37:43;17.82;79.20
75985;DHT22;65033;44.660;37.758;2023-05-07T01:40:45;17.67;81.53
75985;DHT22;65033;44.660;37.758;2023-05-07T01:41:59;17.62;81.02
75985;DHT22;65033;44.660;37.758;2023-05-07T01:43:07;17.56;80.27
75985;DHT22;65033;44.660;37.758;2023-05-07T01:44:17;17.52;82.32
75985;DHT22;65033;44.660;37.758;2023-05-07T01:45:35;17.46;80.35
75985;DHT22;65033;44.660;37.758;2023-05-07T01:46:39;17.41;81.07
75985;DHT22;65033;44.660;37.758;2023-05-07T01:47:48;17.37;81.86
75985;DHT22;65033;44.660;37.758;2023-05-07T01:49:01;17.32;80.97
75985;DHT22;65033;44.660;37.758;2023-05-07T01:50:06;17.26;81.91
75985;DHT22;65033;44.660;37.758;2023-05-07T01:51:12;17.21;81.64
75985;DHT22;65033;44.660;37.758;2023-05-07T01:52:18;17.16;82.41
75985;DHT22;65033;44.660;37.758;2023-05-07T01:53:27;17.11;83.16
75985;DHT22;65033;44.660;37.758;2023-05-07T01:54:31;17.07;83.80
75985;DHT22;65033;44.660;37.758;2023-05-07T01:55:46;17.02;84.92
75985;DHT22;65033;44.660;37.758;2023-05-07T01:57:24;16.94;83.30
75985;DHT22;65033;44.660;37.758;2023-05-07T01:58:38;16.90;83.97
75985;DHT22;65033;44.660;37.758;2023-05-07T01:59:41;16.85;84.13
75985;DHT22;65033;44.660;37.758;2023-05-07T02:01:07;16.82;84.64
75985;DHT22;65033;44.660;37.758;2023-05-07T02:02:16;16.78;84.81
75985;DHT22;65033;44.660;37.758;2023-05-07T02:03:21;16.74;83.09
75985;DHT22;65033;44.660;37.758;2023-05-07T02:04:36;16.69;84.15
75985;DHT22;65033;44.660;37.758;2023-05-07T02:05:47;16.65;84.31
75985;DHT22;65033;44.660;37.758;2023-05-07T02:07:01;16.63;85.10
75985;DHT22;65033;44.660;37.758;2023-05-07T02:08:09;16.61;84.53
75985;DHT22;65033;44.660;37.758;2023-05-07T02:11:23;16.51;83.29
75985;DHT22;65033;44.660;37.758;2023-05-07T02:12:33;16.50;85.04
75985;DHT22;65033;44.660;37.758;2023-05-07T02:13:44;16.46;82.41
75985;DHT22;65033;44.660;37.758;2023-05-07T02:14:51;16.44;82.94
75985;DHT22;65033;44.660;37.758;2023-05-07T02:16:06;16.41;82.82
75985;DHT22;65033;44.660;37.758;2023-05-07T02:17:12;16.39;83.35
75985;DHT22;65033;44.660;37.758;2023-05-07T02:18:21;16.35;84.43
75985;DHT22;65033;44.660;37.758;2023-05-07T02:19:33;16.32;83.29
75985;DHT22;65033;44.660;37.758;2023-05-07T02:20:46;16.31;81.55
75985;DHT22;65033;44.660;37.758;2023-05-07T02:21:51;16.29;82.58
75985;DHT22;65033;44.660;37.758;2023-05-07T02:22:59;16.28;83.74
75985;DHT22;65033;44.660;37.758;2023-05-07T02:24:15;16.25;83.91
75985;DHT22;65033;44.660;37.758;2023-05-07T02:25:21;16.21;82.99
75985;DHT22;65033;44.660;37.758;2023-05-07T02:26:31;16.21;83.79
75985;DHT22;65033;44.660;37.758;2023-05-07T02:27:52;16.19;83.97
75985;DHT22;65033;44.660;37.758;2023-05-07T02:29:09;16.18;83.70
75985;DHT22;65033;44.660;37.758;2023-05-07T02:30:28;16.17;84.42
75985;DHT22;65033;44.660;37.758;2023-05-07T02:31:33;16.14;84.32
75985;DHT22;65033;44.660;37.758;2023-05-07T02:32:42;16.14;84.66
75985;DHT22;65033;44.660;37.758;2023-05-07T02:33:46;16.14;83.64
75985;DHT22;65033;44.660;37.758;2023-05-07T02:35:05;16.15;84.74
75985;DHT22;65033;44.660;37.758;2023-05-07T02:36:24;16.15;85.01
75985;DHT22;65033;44.660;37.758;2023-05-07T02:37:39;16.17;83.75
75985;DHT22;65033;44.660;37.758;2023-05-07T02:38:49;16.18;85.38
75985;DHT22;65033;44.660;37.758;2023-05-07T02:39:54;16.18;85.03
75985;DHT22;65033;44.660;37.758;2023-05-07T02:41:07;16.19;84.66
75985;DHT22;65033;44.660;37.758;2023-05-07T02:42:19;16.19;84.23
75985;DHT22;65033;44.660;37.758;2023-05-07T02:43:29;16.17;83.55
75985;DHT22;65033;44.660;37.758;2023-05-07T02:44:35;16.17;83.30
75985;DHT22;65033;44.660;37.758;2023-05-07T02:45:46;16.17;82.94
75985;DHT22;65033;44.660;37.758;2023-05-07T02:46:57;16.15;83.10
75985;DHT22;65033;44.660;37.758;2023-05-07T02:48:05;16.12;83.11
75985;DHT22;65033;44.660;37.758;2023-05-07T02:49:15;16.12;83.60
75985;DHT22;65033;44.660;37.758;2023-05-07T02:50:22;16.11;84.29
75985;DHT22;65033;44.660;37.758;2023-05-07T02:51:30;16.10;84.57
75985;DHT22;65033;44.660;37.758;2023-05-07T02:52:47;16.10;85.22
75985;DHT22;65033;44.660;37.758;2023-05-07T02:54:07;16.08;85.48
75985;DHT22;65033;44.660;37.758;2023-05-07T02:55:24;16.08;86.31
75985;DHT22;65033;44.660;37.758;2023-05-07T02:56:36;16.07;87.51
75985;DHT22;65033;44.660;37.758;2023-05-07T02:57:41;16.07;86.12
75985;DHT22;65033;44.660;37.758;2023-05-07T02:58:52;16.08;86.28
75985;DHT22;65033;44.660;37.758;2023-05-07T03:00:18;16.06;84.97
75985;DHT22;65033;44.660;37.758;2023-05-07T03:01:40;16.05;86.92
75985;DHT22;65033;44.660;37.758;2023-05-07T03:02:51;16.03;86.90
75985;DHT22;65033;44.660;37.758;2023-05-07T03:04:04;16.01;87.54
75985;DHT22;65033;44.660;37.758;2023-05-07T03:05:11;16.00;86.54
75985;DHT22;65033;44.660;37.758;2023-05-07T03:06:21;15.98;85.12
75985;DHT22;65033;44.660;37.758;2023-05-07T03:07:37;15.96;87.00
75985;DHT22;65033;44.660;37.758;2023-05-07T03:09:12;15.92;86.70
75985;DHT22;65033;44.660;37.758;2023-05-07T03:10:46;15.90;86.66
75985;DHT22;65033;44.660;37.758;2023-05-07T03:11:58;15.90;87.22
75985;DHT22;65033;44.660;37.758;2023-05-07T03:13:29;15.88;87.86
75985;DHT22;65033;44.660;37.758;2023-05-07T03:14:42;15.88;86.59
75985;DHT22;65033;44.660;37.758;2023-05-07T03:16:00;15.90;86.35
75985;DHT22;65033;44.660;37.758;2023-05-07T03:17:39;15.89;85.78
75985;DHT22;65033;44.660;37.758;2023-05-07T03:19:04;15.88;85.84
75985;DHT22;65033;44.660;37.758;2023-05-07T03:20:29;15.89;87.38
75985;DHT22;65033;44.660;37.758;2023-05-07T03:21:48;15.88;86.86
75985;DHT22;65033;44.660;37.758;2023-05-07T03:23:25;15.91;86.41
75985;DHT22;65033;44.660;37.758;2023-05-07T03:24:33;15.92;86.40
75985;DHT22;65033;44.660;37.758;2023-05-07T03:25:43;15.91;85.99
75985;DHT22;65033;44.660;37.758;2023-05-07T03:26:49;15.89;84.93
75985;DHT22;65033;44.660;37.758;2023-05-07T03:28:06;15.95;85.34
75985;DHT22;65033;44.660;37.758;2023-05-07T03:31:37;15.97;85.54
75985;DHT22;65033;44.660;37.758;2023-05-07T03:33:24;16.00;84.70
75985;DHT22;65033;44.660;37.758;2023-05-07T03:34:32;16.00;84.10
75985;DHT22;65033;44.660;37.758;2023-05-07T03:35:38;16.03;86.04
75985;DHT22;65033;44.660;37.758;2023-05-07T03:36:47;16.01;86.12
75985;DHT22;65033;44.660;37.758;2023-05-07T03:38:01;16.03;84.62
75985;DHT22;65033;44.660;37.758;2023-05-07T03:39:26;16.06;84.81
75985;DHT22;65033;44.660;37.758;2023-05-07T03:40:36;16.10;85.22
75985;DHT22;65033;44.660;37.758;2023-05-07T03:42:12;16.12;84.90
75985;DHT22;65033;44.660;37.758;2023-05-07T03:43:24;16.15;84.33
75985;DHT22;65033;44.660;37.758;2023-05-07T03:44:55;16.19;83.93
75985;DHT22;65033;44.660;37.758;2023-05-07T03:46:09;16.24;84.32
75985;DHT22;65033;44.660;37.758;2023-05-07T03:47:30;16.27;82.92
75985;DHT22;65033;44.660;37.758;2023-05-07T03:48:45;16.27;83.98
75985;DHT22;65033;44.660;37.758;2023-05-07T03:50:13;16.28;82.84
75985;DHT22;65033;44.660;37.758;2023-05-07T03:51:40;16.22;83.99
75985;DHT22;65033;44.660;37.758;2023-05-07T03:53:09;16.21;82.80
75985;DHT22;65033;44.660;37.758;2023-05-07T03:54:24;16.21;82.33
75985;DHT22;65033;44.660;37.758;2023-05-07T03:55:34;16.25;81.57
75985;DHT22;65033;44.660;37.758;2023-05-07T03:56:41;16.30;82.00
75985;DHT22;65033;44.660;37.758;2023-05-07T03:57:59;16.33;82.47
75985;DHT22;65033;44.660;37.758;2023-05-07T03:59:11;16.30;82.54
75985;DHT22;65033;44.660;37.758;2023-05-07T04:00:22;16.31;82.18
75985;DHT22;65033;44.660;37.758;2023-05-07T04:01:34;16.32;82.23
75985;DHT22;65033;44.660;37.758;2023-05-07T04:02:57;16.31;81.78
75985;DHT22;65033;44.660;37.758;2023-05-07T04:04:18;16.32;81.25
75985;DHT22;65033;44.660;37.758;2023-05-07T04:05:48;16.36;82.14
75985;DHT22;65033;44.660;37.758;2023-05-07T04:07:06;16.40;81.48
75985;DHT22;65033;44.660;37.758;2023-05-07T04:08:17;16.42;82.24
75985;DHT22;65033;44.660;37.758;2023-05-07T04:09:32;16.43;82.84
75985;DHT22;65033;44.660;37.758;2023-05-07T04:10:44;16.42;82.29
75985;DHT22;65033;44.660;37.758;2023-05-07T04:12:08;16.41;81.78
75985;DHT22;65033;44.660;37.758;2023-05-07T04:13:26;16.41;81.34
75985;DHT22;65033;44.660;37.758;2023-05-07T04:16:18;16.44;85.22
75985;DHT22;65033;44.660;37.758;2023-05-07T04:17:37;16.72;89.15
75985;DHT22;65033;44.660;37.758;2023-05-07T04:19:03;16.82;84.74
75985;DHT22;65033;44.660;37.758;2023-05-07T04:20:42;16.78;82.23
75985;DHT22;65033;44.660;37.758;2023-05-07T04:22:13;16.73;82.11
75985;DHT22;65033;44.660;37.758;2023-05-07T04:23:47;16.71;82.69
75985;DHT22;65033;44.660;37.758;2023-05-07T04:25:05;16.71;81.95
75985;DHT22;65033;44.660;37.758;2023-05-07T04:26:20;16.71;82.51
75985;DHT22;65033;44.660;37.758;2023-05-07T04:27:43;16.72;82.52
75985;DHT22;65033;44.660;37.758;2023-05-07T04:29:21;16.70;84.60
75985;DHT22;65033;44.660;37.758;2023-05-07T04:30:39;16.71;83.38
75985;DHT22;65033;44.660;37.758;2023-05-07T04:31:45;16.70;84.58
75985;DHT22;65033;44.660;37.758;2023-05-07T04:32:55;16.69;84.84
75985;DHT22;65033;44.660;37.758;2023-05-07T04:34:22;16.71;83.59
75985;DHT22;65033;44.660;37.758;2023-05-07T04:35:27;16.73;83.36
75985;DHT22;65033;44.660;37.758;2023-05-07T04:36:30;16.77;82.87
75985;DHT22;65033;44.660;37.758;2023-05-07T04:37:39;16.77;82.11
75985;DHT22;65033;44.660;37.758;2023-05-07T04:38:53;16.81;81.29
75985;DHT22;65033;44.660;37.758;2023-05-07T04:40:43;16.86;80.17
75985;DHT22;65033;44.660;37.758;2023-05-07T04:42:20;16.89;82.07
75985;DHT22;65033;44.660;37.758;2023-05-07T04:43:33;16.91;81.75
75985;DHT22;65033;44.660;37.758;2023-05-07T04:44:46;16.92;80.91
75985;DHT22;65033;44.660;37.758;2023-05-07T04:46:01;16.93;81.47
75985;DHT22;65033;44.660;37.758;2023-05-07T04:47:09;16.98;81.21
75985;DHT22;65033;44.660;37.758;2023-05-07T04:48:13;16.96;80.14
75985;DHT22;65033;44.660;37.758;2023-05-07T04:51:38;16.92;79.87
75985;DHT22;65033;44.660;37.758;2023-05-07T04:52:58;16.89;81.23
75985;DHT22;65033;44.660;37.758;2023-05-07T04:54:19;16.93;69.37
75985;DHT22;65033;44.660;37.758;2023-05-07T04:55:24;16.91;69.48
75985;DHT22;65033;44.660;37.758;2023-05-07T04:56:30;16.89;69.78
75985;DHT22;65033;44.660;37.758;2023-05-07T04:57:35;16.86;74.67
75985;DHT22;65033;44.660;37.758;2023-05-07T04:58:40;16.80;75.02
75985;DHT22;65033;44.660;37.758;2023-05-07T05:00:12;16.79;74.83
75985;DHT22;65033;44.660;37.758;2023-05-07T05:01:41;16.77;73.54
75985;DHT22;65033;44.660;37.758;2023-05-07T05:02:53;17.40;90.23
75985;DHT22;65033;44.660;37.758;2023-05-07T05:04:03;17.97;88.30
75985;DHT22;65033;44.660;37.758;2023-05-07T05:05:29;17.84;70.98
75985;DHT22;65033;44.660;37.758;2023-05-07T05:06:37;17.73;70.77
75985;DHT22;65033;44.660;37.758;2023-05-07T05:07:54;17.62;72.63
75985;DHT22;65033;44.660;37.758;2023-05-07T05:09:00;17.51;73.64
75985;DHT22;65033;44.660;37.758;2023-05-07T05:10:12;17.38;74.27
75985;DHT22;65033;44.660;37.758;2023-05-07T05:11:26;17.32;74.10
75985;DHT22;65033;44.660;37.758;2023-05-07T05:12:50;17.24;76.41
75985;DHT22;65033;44.660;37.758;2023-05-07T05:14:05;17.21;75.51
75985;DHT22;65033;44.660;37.758;2023-05-07T05:15:12;17.13;76.62
75985;DHT22;65033;44.660;37.758;2023-05-07T05:16:21;17.08;76.09
75985;DHT22;65033;44.660;37.758;2023-05-07T05:17:25;17.06;76.36
75985;DHT22;65033;44.660;37.758;2023-05-07T05:18:35;17.03;77.36
75985;DHT22;65033;44.660;37.758;2023-05-07T05:19:53;17.01;76.67
75985;DHT22;65033;44.660;37.758;2023-05-07T05:21:20;17.03;76.91
75985;DHT22;65033;44.660;37.758;2023-05-07T05:23:21;16.96;76.70
75985;DHT22;65033;44.660;37.758;2023-05-07T05:24:25;17.68;92.47
75985;DHT22;65033;44.660;37.758;2023-05-07T05:25:31;17.80;72.72
75985;DHT22;65033;44.660;37.758;2023-05-07T05:26:40;17.78;71.48
75985;DHT22;65033;44.660;37.758;2023-05-07T05:28:02;17.67;71.02
75985;DHT22;65033;44.660;37.758;2023-05-07T05:29:12;17.58;71.68
75985;DHT22;65033;44.660;37.758;2023-05-07T05:30:21;17.44;72.30
75985;DHT22;65033;44.660;37.758;2023-05-07T05:31:26;17.37;71.80
75985;DHT22;65033;44.660;37.758;2023-05-07T05:32:31;17.31;72.88
75985;DHT22;65033;44.660;37.758;2023-05-07T05:33:39;17.21;71.79
75985;DHT22;65033;44.660;37.758;2023-05-07T05:34:50;17.14;70.46
75985;DHT22;65033;44.660;37.758;2023-05-07T05:35:54;17.09;72.80
75985;DHT22;65033;44.660;37.758;2023-05-07T05:37:04;17.07;73.39
75985;DHT22;65033;44.660;37.758;2023-05-07T05:38:11;17.03;73.85
75985;DHT22;65033;44.660;37.758;2023-05-07T05:39:21;17.00;72.83
75985;DHT22;65033;44.660;37.758;2023-05-07T05:40:30;16.98;73.70
75985;DHT22;65033;44.660;37.758;2023-05-07T05:41:37;16.94;71.75
75985;DHT22;65033;44.660;37.758;2023-05-07T05:42:40;16.94;71.09
75985;DHT22;65033;44.660;37.758;2023-05-07T05:43:51;16.96;71.62
75985;DHT22;65033;44.660;37.758;2023-05-07T05:44:54;16.98;70.43
75985;DHT22;65033;44.660;37.758;2023-05-07T05:46:00;16.99;70.59
75985;DHT22;65033;44.660;37.758;2023-05-07T05:47:19;17.03;70.29
75985;DHT22;65033;44.660;37.758;2023-05-07T05:48:37;17.03;69.21
75985;DHT22;65033;44.660;37.758;2023-05-07T05:49:46;17.08;69.19
75985;DHT22;65033;44.660;37.758;2023-05-07T05:51:54;17.20;68.36
75985;DHT22;65033;44.660;37.758;2023-05-07T05:53:18;17.26;69.74
75985;DHT22;65033;44.660;37.758;2023-05-07T05:54:24;17.33;70.20
75985;DHT22;65033;44.660;37.758;2023-05-07T05:55:28;17.34;67.65
75985;DHT22;65033;44.660;37.758;2023-05-07T05:56:31;17.36;67.41
75985;DHT22;65033;44.660;37.758;2023-05-07T05:57:40;17.39;68.52
75985;DHT22;65033;44.660;37.758;2023-05-07T05:59:07;17.40;67.59
75985;DHT22;65033;44.660;37.758;2023-05-07T06:00:19;17.81;88.83
75985;DHT22;65033;44.660;37.758;2023-05-07T06:01:36;18.58;96.13
75985;DHT22;65033;44.660;37.758;2023-05-07T06:02:43;18.58;67.47
75985;DHT22;65033;44.660;37.758;2023-05-07T06:04:04;18.58;64.36
75985;DHT22;65033;44.660;37.758;2023-05-07T06:05:24;18.49;64.51
75985;DHT22;65033;44.660;37.758;2023-05-07T06:06:31;18.37;63.62
75985;DHT22;65033;44.660;37.758;2023-05-07T06:07:47;18.26;63.58
75985;DHT22;65033;44.660;37.758;2023-05-07T06:08:52;18.19;64.72
75985;DHT22;65033;44.660;37.758;2023-05-07T06:10:17;18.08;63.75
75985;DHT22;65033;44.660;37.758;2023-05-07T06:13:27;17.97;64.98
75985;DHT22;65033;44.660;37.758;2023-05-07T06:14:31;17.96;64.97
75985;DHT22;65033;44.660;37.758;2023-05-07T06:15:46;17.89;65.22
75985;DHT22;65033;44.660;37.758;2023-05-07T06:16:51;17.81;65.30
75985;DHT22;65033;44.660;37.758;2023-05-07T06:18:09;17.80;65.05
75985;DHT22;65033;44.660;37.758;2023-05-07T06:19:27;17.78;65.57
75985;DHT22;65033;44.660;37.758;2023-05-07T06:20:36;17.79;65.94
75985;DHT22;65033;44.660;37.758;2023-05-07T06:21:47;17.79;65.24
75985;DHT22;65033;44.660;37.758;2023-05-07T06:22:53;18.30;88.42
75985;DHT22;65033;44.660;37.758;2023-05-07T06:23:58;18.43;70.54
75985;DHT22;65033;44.660;37.758;2023-05-07T06:25:33;18.43;63.14
75985;DHT22;65033;44.660;37.758;2023-05-07T06:27:11;18.38;63.74
75985;DHT22;65033;44.660;37.758;2023-05-07T06:28:23;18.35;63.13
75985;DHT22;65033;44.660;37.758;2023-05-07T06:29:31;18.34;63.79
75985;DHT22;65033;44.660;37.758;2023-05-07T06:30:47;18.25;63.09
75985;DHT22;65033;44.660;37.758;2023-05-07T06:32:00;18.21;63.21
75985;DHT22;65033;44.660;37.758;2023-05-07T06:33:21;18.19;63.31
75985;DHT22;65033;44.660;37.758;2023-05-07T06:34:32;18.13;63.37
75985;DHT22;65033;44.660;37.758;2023-05-07T06:35:43;18.09;63.61
75985;DHT22;65033;44.660;37.758;2023-05-07T06:36:48;18.08;64.27
75985;DHT22;65033;44.660;37.758;2023-05-07T06:38:16;18.06;64.21
75985;DHT22;65033;44.660;37.758;2023-05-07T06:39:23;18.09;64.05
75985;DHT22;65033;44.660;37.758;2023-05-07T06:40:37;18.10;64.18
75985;DHT22;65033;44.660;37.758;2023-05-07T06:41:41;18.10;64.93
75985;DHT22;65033;44.660;37.758;2023-05-07T06:42:54;18.12;65.04
75985;DHT22;65033;44.660;37.758;2023-05-07T06:44:24;18.07;64.74
75985;DHT22;65033;44.660;37.758;2023-05-07T06:45:56;18.06;65.08
75985;DHT22;65033;44.660;37.758;2023-05-07T06:46:59;18.07;65.14
75985;DHT22;65033;44.660;37.758;2023-05-07T06:48:03;18.02;64.19
75985;DHT22;65033;44.660;37.758;2023-05-07T06:49:21;17.97;65.09
75985;DHT22;65033;44.660;37.758;2023-05-07T06:50:27;17.94;63.98
75985;DHT22;65033;44.660;37.758;2023-05-07T06:51:35;17.94;64.50
75985;DHT22;65033;44.660;37.758;2023-05-07T06:52:48;17.96;64.99
75985;DHT22;65033;44.660;37.758;2023-05-07T06:53:52;17.98;64.37
75985;DHT22;65033;44.660;37.758;2023-05-07T06:54:56;18.32;87.13
75985;DHT22;65033;44.660;37.758;2023-05-07T06:56:21;18.76;71.31
75985;DHT22;65033;44.660;37.758;2023-05-07T06:57:25;18.79;62.96
75985;DHT22;65033;44.660;37.758;2023-05-07T06:58:31;18.67;61.96
75985;DHT22;65033;44.660;37.758;2023-05-07T06:59:37;18.61;62.78
75985;DHT22;65033;44.660;37.758;2023-05-07T07:00:41;18.55;62.32
75985;DHT22;65033;44.660;37.758;2023-05-07T07:01:47;18.55;62.27
75985;DHT22;65033;44.660;37.758;2023-05-07T07:03:03;18.53;63.77
75985;DHT22;65033;44.660;37.758;2023-05-07T07:04:19;18.47;61.57
75985;DHT22;65033;44.660;37.758;2023-05-07T07:05:41;18.43;61.81
75985;DHT22;65033;44.660;37.758;2023-05-07T07:06:57;18.38;62.58
75985;DHT22;65033;44.660;37.758;2023-05-07T07:08:01;18.35;64.56
75985;DHT22;65033;44.660;37.758;2023-05-07T07:09:04;18.33;62.15
75985;DHT22;65033;44.660;37.758;2023-05-07T07:10:11;18.28;62.97
75985;DHT22;65033;44.660;37.758;2023-05-07T07:11:16;18.21;63.55
75985;DHT22;65033;44.660;37.758;2023-05-07T07:12:23;18.17;63.08
75985;DHT22;65033;44.660;37.758;2023-05-07T07:13:34;18.12;62.92
75985;DHT22;65033;44.660;37.758;2023-05-07T07:14:39;18.77;91.15
75985;DHT22;65033;44.660;37.758;2023-05-07T07:16:06;19.00;70.37
75985;DHT22;65033;44.660;37.758;2023-05-07T07:17:10;19.08;69.39
75985;DHT22;65033;44.660;37.758;2023-05-07T07:18:18;19.03;68.61
75985;DHT22;65033;44.660;37.758;2023-05-07T07:19:24;18.96;68.84
75985;DHT22;65033;44.660;37.758;2023-05-07T07:20:30;18.92;66.65
75985;DHT22;65033;44.660;37.758;2023-05-07T07:21:36;18.88;67.00
75985;DHT22;65033;44.660;37.758;2023-05-07T07:22:39;18.85;66.75
75985;DHT22;65033;44.660;37.758;2023-05-07T07:23:43;18.83;66.45
75985;DHT22;65033;44.660;37.758;2023-05-07T07:24:46;18.80;66.30
75985;DHT22;65033;44.660;37.758;2023-05-07T07:25:52;18.80;66.47
75985;DHT22;65033;44.660;37.758;2023-05-07T07:26:55;18.80;66.46
75985;DHT22;65033;44.660;37.758;2023-05-07T07:28:03;18.70;66.11
75985;DHT22;65033;44.660;37.758;2023-05-07T07:29:09;18.70;66.92
75985;DHT22;65033;44.660;37.758;2023-05-07T07:30:17;18.69;66.35
75985;DHT22;65033;44.660;37.758;2023-05-07T07:31:38;18.68;66.48
75985;DHT22;65033;44.660;37.758;2023-05-07T07:32:48;18.64;68.20
75985;DHT22;65033;44.660;37.758;2023-05-07T07:33:54;18.59;69.12
75985;DHT22;65033;44.660;37.758;2023-05-07T07:35:01;18.61;69.24
75985;DHT22;65033;44.660;37.758;2023-05-07T07:36:12;18.64;68.04
75985;DHT22;65033;44.660;37.758;2023-05-07T07:37:17;18.63;68.86
75985;DHT22;65033;44.660;37.758;2023-05-07T07:38:21;18.64;67.86
75985;DHT22;65033;44.660;37.758;2023-05-07T07:39:25;18.62;66.99
75985;DHT22;65033;44.660;37.758;2023-05-07T07:40:34;18.63;67.49
75985;DHT22;65033;44.660;37.758;2023-05-07T07:41:39;18.65;66.54
75985;DHT22;65033;44.660;37.758;2023-05-07T07:42:44;18.67;67.71
75985;DHT22;65033;44.660;37.758;2023-05-07T07:43:52;18.68;66.98